Terminal Aerodrome Forecast
Issued by NWS Charleston, WV

Current Version | Previous Version | Text Only | Print | Product List | Glossary Off
Versions: 1 2 3 4 5 6 7 8 9 10 11 12 13 14 15 16 17 18 19 20 21 22

000
FTUS41 KRLX 270539
TAFEKN
TAF
KEKN 270539Z 2706/2806 00000KT P6SM SCT025 SCT050
     FM271000 00000KT 1/4SM FG VV001
     FM271300 00000KT 4SM BR SCT001 SCT045
     FM271400 VRB03KT P6SM SCT045
     FM271600 33005KT P6SM SCT040
     FM272300 00000KT P6SM SKC=

USA.gov is the U.S. government's official web portal to all federal, state and local government web resources and services.